createdAt,value
2022-11-13T00:01:23.543Z,33.03
2022-11-13T00:03:44.519Z,24.87
2022-11-13T00:06:05.457Z,26.93
2022-11-13T00:08:26.761Z,27.47
2022-11-13T00:10:48.220Z,29.10
2022-11-13T00:13:08.986Z,29.27
2022-11-13T00:15:29.917Z,31.07
2022-11-13T00:17:50.558Z,29.50
2022-11-13T00:20:11.539Z,25.17
2022-11-13T00:22:32.329Z,30.20
2022-11-13T00:24:53.354Z,25.80
2022-11-13T00:27:14.516Z,34.23
2022-11-13T00:29:35.401Z,25.00
2022-11-13T00:31:56.041Z,28.77
2022-11-13T00:34:45.906Z,30.47
2022-11-13T00:36:58.342Z,25.93
2022-11-13T00:39:19.013Z,25.10
2022-11-13T00:41:39.890Z,30.10
2022-11-13T00:44:00.647Z,25.80
2022-11-13T00:46:21.498Z,25.90
2022-11-13T00:48:42.180Z,30.10
2022-11-13T00:51:03.766Z,25.53
2022-11-13T00:53:24.649Z,24.73
2022-11-13T00:55:45.461Z,26.30
2022-11-13T00:58:06.020Z,20.73
2022-11-13T01:00:26.854Z,33.00
2022-11-13T01:02:47.679Z,21.50
2022-11-13T01:05:08.646Z,25.07
2022-11-13T01:07:29.442Z,24.30
2022-11-13T01:09:51.042Z,33.40
2022-11-13T01:12:11.381Z,66.60
2022-11-13T01:14:32.165Z,32.07
2022-11-13T01:16:52.857Z,38.00
2022-11-13T01:19:13.611Z,35.53
2022-11-13T01:21:34.378Z,61.13
2022-11-13T01:23:56.276Z,74.33
2022-11-13T01:26:23.302Z,42.03
2022-11-13T01:28:45.417Z,53.60
2022-11-13T01:31:07.932Z,66.50
2022-11-13T01:33:29.124Z,101.80
2022-11-13T01:35:50.040Z,98.47
2022-11-13T01:38:10.729Z,52.07
2022-11-13T01:40:31.119Z,109.07
2022-11-13T01:42:51.894Z,170.50
2022-11-13T01:45:50.069Z,115.40
2022-11-13T01:48:12.411Z,64.30
2022-11-13T01:50:33.327Z,76.10
2022-11-13T01:52:53.965Z,111.37
2022-11-13T01:55:16.576Z,80.77
2022-11-13T01:57:37.043Z,71.40
2022-11-13T02:00:01.175Z,75.97
2022-11-13T02:02:21.969Z,60.40
2022-11-13T02:04:43.248Z,75.67
2022-11-13T02:07:13.325Z,62.87
2022-11-13T02:09:37.699Z,47.73
2022-11-13T02:11:58.654Z,69.03
2022-11-13T02:14:20.234Z,73.83
2022-11-13T02:16:42.592Z,57.13
2022-11-13T02:19:07.041Z,103.23
2022-11-13T02:21:38.865Z,57.87
2022-11-13T02:24:15.027Z,69.17
2022-11-13T02:26:36.333Z,83.23
2022-11-13T02:28:57.085Z,36.90
2022-11-13T02:31:17.889Z,58.20
2022-11-13T02:33:38.591Z,80.60
2022-11-13T02:35:59.554Z,58.17
2022-11-13T02:38:20.228Z,67.30
2022-11-13T02:40:41.329Z,58.27
2022-11-13T02:43:01.996Z,57.50
2022-11-13T02:45:22.736Z,82.17
2022-11-13T02:47:43.483Z,85.77
2022-11-13T02:50:05.182Z,80.30
2022-11-13T02:52:25.754Z,103.90
2022-11-13T02:54:46.312Z,105.30
2022-11-13T02:57:07.124Z,78.77
2022-11-13T02:59:27.903Z,78.23
2022-11-13T03:01:48.718Z,58.63
2022-11-13T03:04:09.635Z,85.37
2022-11-13T03:06:30.313Z,68.07
2022-11-13T03:08:50.945Z,80.40
2022-11-13T03:11:11.993Z,63.10
2022-11-13T03:13:32.462Z,63.03
2022-11-13T03:16:18.361Z,70.10
2022-11-13T03:18:38.886Z,45.00
2022-11-13T03:21:06.477Z,84.67
2022-11-13T03:23:28.249Z,115.33
2022-11-13T03:25:49.028Z,84.07
2022-11-13T03:28:09.745Z,82.80
2022-11-13T03:30:30.741Z,107.13
2022-11-13T03:32:55.558Z,62.97
2022-11-13T03:35:16.152Z,63.93
2022-11-13T03:37:36.963Z,58.23
2022-11-13T03:39:57.574Z,59.93
2022-11-13T03:42:18.523Z,53.13
2022-11-13T03:44:39.193Z,78.67
2022-11-13T03:46:59.907Z,80.03
2022-11-13T03:49:20.632Z,72.50
2022-11-13T03:51:41.458Z,63.20
2022-11-13T03:54:02.213Z,49.77
2022-11-13T03:56:23.103Z,43.77
2022-11-13T03:58:49.339Z,68.70
2022-11-13T04:01:10.219Z,53.27
2022-11-13T04:03:30.537Z,97.30
2022-11-13T04:05:51.500Z,61.13
2022-11-13T04:08:12.097Z,67.33
2022-11-13T04:10:32.899Z,82.53
2022-11-13T04:12:54.054Z,64.20
2022-11-13T04:15:14.700Z,75.13
2022-11-13T04:17:35.461Z,108.17
2022-11-13T04:19:56.207Z,85.60
2022-11-13T04:22:17.026Z,96.00
2022-11-13T04:24:37.649Z,93.37
2022-11-13T04:26:58.448Z,74.17
2022-11-13T04:29:19.122Z,158.70
2022-11-13T04:31:39.914Z,66.03
2022-11-13T04:34:00.881Z,112.20
2022-11-13T04:36:21.472Z,52.60
2022-11-13T04:38:42.037Z,121.63
2022-11-13T04:41:21.153Z,121.70
2022-11-13T04:43:41.915Z,122.07
2022-11-13T04:46:02.618Z,133.23
2022-11-13T04:48:23.556Z,118.77
2022-11-13T04:50:44.517Z,69.83
2022-11-13T04:53:05.157Z,76.30
2022-11-13T04:55:26.256Z,115.53
2022-11-13T04:57:47.088Z,146.03
2022-11-13T05:00:09.345Z,102.17
2022-11-13T05:02:30.100Z,142.63
2022-11-13T05:04:51.085Z,74.60
2022-11-13T05:07:12.080Z,129.57
2022-11-13T05:09:33.109Z,161.70
2022-11-13T05:11:54.208Z,181.07
2022-11-13T05:14:15.023Z,134.43
2022-11-13T05:16:36.637Z,129.07
2022-11-13T05:19:00.310Z,120.53
2022-11-13T05:21:20.883Z,123.00
2022-11-13T05:23:41.738Z,147.37
2022-11-13T05:26:04.763Z,137.77
2022-11-13T05:28:27.072Z,131.10
2022-11-13T05:30:48.117Z,99.97
2022-11-13T05:33:08.933Z,116.10
2022-11-13T05:35:29.620Z,159.50
2022-11-13T05:37:50.421Z,119.93
2022-11-13T05:40:11.995Z,155.33
2022-11-13T05:42:32.460Z,107.73
2022-11-13T05:44:53.468Z,91.87
2022-11-13T05:47:14.560Z,124.77
2022-11-13T05:49:35.551Z,67.60
2022-11-13T05:51:56.454Z,90.40
2022-11-13T05:54:17.288Z,98.17
2022-11-13T05:56:38.388Z,109.73
2022-11-13T05:59:00.245Z,144.07
2022-11-13T06:01:23.968Z,123.07
2022-11-13T06:03:45.435Z,169.63
2022-11-13T06:06:08.959Z,90.50
2022-11-13T06:08:29.788Z,92.93
2022-11-13T06:10:50.615Z,128.87
2022-11-13T06:13:11.247Z,127.63
2022-11-13T06:15:31.943Z,95.30
2022-11-13T06:17:52.590Z,111.67
2022-11-13T06:20:13.194Z,105.20
2022-11-13T06:22:33.906Z,130.10
2022-11-13T06:24:54.579Z,121.80
2022-11-13T06:27:15.340Z,117.27
2022-11-13T06:29:36.145Z,129.00
2022-11-13T06:31:56.926Z,102.40
2022-11-13T06:34:17.570Z,124.37
2022-11-13T06:36:38.512Z,131.90
2022-11-13T06:38:59.314Z,120.57
2022-11-13T06:41:22.384Z,100.57
2022-11-13T06:43:43.205Z,131.23
2022-11-13T06:46:06.770Z,105.33
2022-11-13T06:48:27.925Z,125.27
2022-11-13T06:50:49.154Z,101.50
2022-11-13T06:53:09.838Z,94.97
2022-11-13T06:55:30.774Z,130.03
2022-11-13T06:57:51.604Z,79.30
2022-11-13T07:00:13.036Z,148.13
2022-11-13T07:02:33.994Z,97.10
2022-11-13T07:04:54.896Z,106.00
2022-11-13T07:07:15.866Z,85.57
2022-11-13T07:09:36.610Z,118.57
2022-11-13T07:11:57.335Z,110.47
2022-11-13T07:14:18.099Z,135.47
2022-11-13T07:17:07.556Z,86.57
2022-11-13T07:19:19.880Z,127.70
2022-11-13T07:21:40.611Z,130.07
2022-11-13T07:24:01.464Z,98.90
2022-11-13T07:26:22.561Z,132.83
2022-11-13T07:28:43.167Z,92.67
2022-11-13T07:31:03.928Z,88.27
2022-11-13T07:33:24.977Z,85.43
2022-11-13T07:35:45.608Z,55.00
2022-11-13T07:38:06.411Z,97.77
2022-11-13T07:40:27.127Z,62.83
2022-11-13T07:42:47.816Z,87.97
2022-11-13T07:45:08.729Z,56.13
2022-11-13T07:47:29.597Z,64.60
2022-11-13T07:49:50.380Z,35.43
2022-11-13T07:52:11.154Z,39.60
2022-11-13T07:54:32.025Z,64.67
2022-11-13T07:56:53.253Z,34.63
2022-11-13T07:59:14.099Z,49.73
2022-11-13T08:01:35.131Z,40.37
2022-11-13T08:03:55.925Z,45.40
2022-11-13T08:06:16.627Z,42.80
2022-11-13T08:08:37.379Z,43.60
2022-11-13T08:10:58.196Z,46.87
2022-11-13T08:13:18.917Z,46.40
2022-11-13T08:15:39.890Z,48.97
2022-11-13T08:18:02.000Z,49.57
2022-11-13T08:20:23.386Z,52.33
2022-11-13T08:22:49.954Z,56.70
2022-11-13T08:25:10.476Z,54.33
2022-11-13T08:27:31.128Z,58.77
2022-11-13T08:29:52.238Z,45.93
2022-11-13T08:32:16.780Z,62.77
2022-11-13T08:34:37.526Z,65.03
2022-11-13T08:36:58.248Z,60.90
2022-11-13T08:39:18.718Z,52.53
2022-11-13T08:41:39.321Z,64.47
2022-11-13T08:43:59.987Z,67.53
2022-11-13T08:46:20.867Z,65.80
2022-11-13T08:48:41.543Z,66.13
2022-11-13T08:51:02.366Z,74.90
2022-11-13T08:53:24.373Z,67.70
2022-11-13T08:55:44.826Z,70.47
2022-11-13T08:58:05.537Z,62.20
2022-11-13T09:00:27.822Z,75.23
2022-11-13T09:02:48.411Z,62.13
2022-11-13T09:05:09.486Z,79.87
2022-11-13T09:07:30.038Z,78.03
2022-11-13T09:09:50.902Z,76.33
2022-11-13T09:12:11.842Z,78.23
2022-11-13T09:14:32.602Z,73.97
2022-11-13T09:16:53.350Z,78.00
2022-11-13T09:19:14.114Z,81.23
2022-11-13T09:21:34.813Z,84.37
2022-11-13T09:23:55.891Z,96.17
2022-11-13T09:26:16.747Z,85.93
2022-11-13T09:28:37.430Z,87.73
2022-11-13T09:30:58.099Z,92.17
2022-11-13T09:33:18.894Z,71.90
2022-11-13T09:35:39.782Z,82.53
2022-11-13T09:38:11.054Z,69.60
2022-11-13T09:40:38.396Z,72.67
2022-11-13T09:43:01.821Z,76.33
2022-11-13T09:45:22.831Z,73.33
2022-11-13T09:47:44.753Z,77.67
2022-11-13T09:50:17.189Z,70.40
2022-11-13T09:52:41.042Z,71.10
2022-11-13T09:55:04.335Z,68.53
2022-11-13T09:57:58.454Z,84.97
2022-11-13T10:00:20.802Z,78.03
2022-11-13T10:03:06.916Z,72.60
2022-11-13T10:05:29.574Z,84.53
2022-11-13T10:08:27.603Z,110.80
2022-11-13T10:11:10.417Z,80.50
2022-11-13T10:13:46.098Z,85.77
2022-11-13T10:16:26.739Z,94.00
2022-11-13T10:18:48.602Z,73.20
2022-11-13T10:21:21.457Z,70.40
2022-11-13T10:23:44.380Z,72.80
2022-11-13T10:26:14.836Z,82.03
2022-11-13T10:28:49.943Z,83.47
2022-11-13T10:31:12.328Z,77.60
2022-11-13T10:33:33.140Z,78.10
2022-11-13T10:36:00.699Z,77.80
2022-11-13T10:38:27.629Z,68.77
2022-11-13T10:40:48.152Z,72.77
2022-11-13T10:43:15.421Z,72.87
2022-11-13T10:45:36.321Z,68.07
2022-11-13T10:48:04.362Z,71.87
2022-11-13T10:50:28.743Z,76.33
2022-11-13T10:52:50.493Z,74.33
2022-11-13T10:55:40.990Z,71.00
2022-11-13T10:58:03.880Z,75.60
2022-11-13T11:00:24.537Z,71.13
2022-11-13T11:02:49.131Z,73.73
2022-11-13T11:05:20.042Z,68.70
2022-11-13T11:07:41.326Z,71.17
2022-11-13T11:10:02.314Z,73.93
2022-11-13T11:12:30.541Z,71.33
2022-11-13T11:15:00.093Z,68.03
2022-11-13T11:17:43.141Z,73.73
2022-11-13T11:20:21.081Z,56.27
2022-11-13T11:22:42.144Z,63.80
2022-11-13T11:25:34.809Z,64.97
2022-11-13T11:28:05.391Z,66.83
2022-11-13T11:30:26.892Z,60.37
2022-11-13T11:32:53.460Z,69.00
2022-11-13T11:35:19.595Z,58.43
2022-11-13T11:37:47.841Z,65.40
2022-11-13T11:40:27.373Z,61.93
2022-11-13T11:43:00.790Z,54.20
2022-11-13T11:45:25.776Z,56.83
2022-11-13T11:47:46.643Z,53.60
2022-11-13T11:50:13.209Z,55.33
2022-11-13T11:52:49.286Z,61.40
2022-11-13T11:55:22.171Z,50.70
2022-11-13T11:57:45.611Z,52.50
2022-11-13T12:00:14.058Z,51.00
2022-11-13T12:03:12.147Z,46.93
2022-11-13T12:05:45.309Z,50.47
2022-11-13T12:08:33.521Z,57.87
2022-11-13T12:11:06.441Z,49.00
2022-11-13T12:13:29.979Z,48.53
2022-11-13T12:16:02.582Z,51.87
2022-11-13T12:18:36.162Z,50.83
2022-11-13T12:21:06.550Z,52.73
2022-11-13T12:23:37.466Z,47.00
2022-11-13T12:26:07.665Z,54.97
2022-11-13T12:28:31.284Z,49.53
2022-11-13T12:31:12.537Z,47.43
2022-11-13T12:33:42.152Z,55.53
2022-11-13T12:36:03.657Z,51.83
2022-11-13T12:38:59.440Z,50.67
2022-11-13T12:41:20.172Z,45.93
2022-11-13T12:44:27.309Z,48.80
2022-11-13T12:46:49.621Z,47.77
2022-11-13T12:49:30.247Z,55.67
2022-11-13T12:51:55.408Z,51.40
2022-11-13T12:54:25.959Z,44.03
2022-11-13T12:56:46.597Z,47.57
2022-11-13T12:59:31.786Z,42.03
2022-11-13T13:02:01.507Z,42.30
2022-11-13T13:04:53.131Z,48.07
2022-11-13T13:07:18.164Z,38.90
2022-11-13T13:10:07.193Z,43.63
2022-11-13T13:12:42.234Z,41.07
2022-11-13T13:15:33.477Z,39.37
2022-11-13T13:18:02.965Z,41.77
2022-11-13T13:20:23.594Z,39.17
2022-11-13T13:22:55.480Z,34.67
2022-11-13T13:25:31.086Z,38.80
2022-11-13T13:28:00.004Z,42.70
2022-11-13T13:30:23.027Z,35.17
2022-11-13T13:33:03.011Z,37.60
2022-11-13T13:35:38.636Z,43.10
2022-11-13T13:38:13.619Z,40.73
2022-11-13T13:40:53.128Z,37.83
2022-11-13T13:43:22.751Z,41.17
2022-11-13T13:45:55.114Z,38.43
2022-11-13T13:48:19.326Z,34.07
2022-11-13T13:50:44.335Z,45.43
2022-11-13T13:53:05.634Z,40.57
2022-11-13T13:55:33.901Z,39.20
2022-11-13T13:57:54.626Z,42.40
2022-11-13T14:00:17.243Z,37.03
2022-11-13T14:02:46.054Z,37.30
2022-11-13T14:05:38.218Z,37.50
2022-11-13T14:07:59.133Z,38.00
2022-11-13T14:10:22.633Z,43.50
2022-11-13T14:12:44.471Z,36.07
2022-11-13T14:15:15.170Z,35.13
2022-11-13T14:17:35.618Z,31.07
2022-11-13T14:20:01.039Z,32.50
2022-11-13T14:22:22.377Z,30.80
2022-11-13T14:24:47.441Z,31.53
2022-11-13T14:27:11.936Z,32.10
2022-11-13T14:29:37.646Z,36.07
2022-11-13T14:32:05.613Z,33.30
2022-11-13T14:34:26.089Z,42.23
2022-11-13T14:36:48.410Z,36.57
2022-11-13T14:39:28.648Z,32.03
2022-11-13T14:41:57.644Z,37.43
2022-11-13T14:44:32.371Z,36.47
2022-11-13T14:47:06.084Z,40.87
2022-11-13T14:49:37.045Z,43.27
2022-11-13T14:51:58.313Z,49.40
2022-11-13T14:54:53.256Z,41.97
2022-11-13T14:57:14.360Z,40.87
2022-11-13T14:59:35.014Z,40.40
2022-11-13T15:01:59.145Z,35.60
2022-11-13T15:04:19.524Z,37.47
2022-11-13T15:06:40.986Z,37.73
2022-11-13T15:09:02.433Z,40.67
2022-11-13T15:11:25.681Z,42.43
2022-11-13T15:13:46.902Z,39.30
2022-11-13T15:16:07.538Z,36.83
2022-11-13T15:18:28.065Z,36.63
2022-11-13T15:20:48.832Z,39.47
2022-11-13T15:23:12.724Z,40.20
2022-11-13T15:25:33.497Z,41.13
2022-11-13T15:27:54.542Z,36.10
2022-11-13T15:30:16.599Z,37.80
2022-11-13T15:32:37.782Z,41.53
2022-11-13T15:34:58.205Z,41.13
2022-11-13T15:37:18.954Z,43.17
2022-11-13T15:39:39.557Z,51.20
2022-11-13T15:42:07.077Z,59.67
2022-11-13T15:44:27.626Z,41.33
2022-11-13T15:46:48.270Z,45.30
2022-11-13T15:49:08.997Z,44.07
2022-11-13T15:51:46.483Z,50.20
2022-11-13T15:54:16.089Z,47.33
2022-11-13T15:56:36.885Z,78.37
2022-11-13T15:58:57.257Z,70.63
2022-11-13T16:01:19.015Z,75.73
2022-11-13T16:03:40.525Z,73.57
2022-11-13T16:06:01.438Z,65.40
2022-11-13T16:08:21.764Z,63.93
2022-11-13T16:10:42.342Z,55.90
2022-11-13T16:13:03.550Z,65.87
2022-11-13T16:15:24.252Z,57.37
2022-11-13T16:17:48.808Z,59.40
2022-11-13T16:20:12.849Z,63.13
2022-11-13T16:22:33.139Z,51.17
2022-11-13T16:24:53.932Z,54.07
2022-11-13T16:27:21.448Z,56.47
2022-11-13T16:29:42.829Z,50.50
2022-11-13T16:32:03.199Z,51.83
2022-11-13T16:34:23.980Z,56.03
2022-11-13T16:36:44.906Z,53.00
2022-11-13T16:39:05.931Z,45.33
2022-11-13T16:41:26.441Z,53.53
2022-11-13T16:43:47.076Z,53.80
2022-11-13T16:46:29.936Z,47.97
2022-11-13T16:48:50.235Z,42.10
2022-11-13T16:51:10.957Z,44.97
2022-11-13T16:53:31.541Z,50.87
2022-11-13T16:55:52.004Z,62.27
2022-11-13T16:58:14.130Z,57.73
2022-11-13T17:00:34.593Z,56.57
2022-11-13T17:02:54.917Z,54.53
2022-11-13T17:05:16.683Z,57.93
2022-11-13T17:07:37.076Z,53.20
2022-11-13T17:10:24.248Z,50.30
2022-11-13T17:12:38.804Z,48.67
2022-11-13T17:14:59.916Z,54.07
2022-11-13T17:17:20.531Z,50.50
2022-11-13T17:19:44.176Z,45.83
2022-11-13T17:22:04.485Z,52.20
2022-11-13T17:24:25.189Z,53.03
2022-11-13T17:26:45.954Z,40.53
2022-11-13T17:29:06.890Z,47.37
2022-11-13T17:31:27.997Z,48.67
2022-11-13T17:33:48.591Z,43.03
2022-11-13T17:36:10.065Z,53.23
2022-11-13T17:38:30.757Z,55.13
2022-11-13T17:40:52.428Z,54.80
2022-11-13T17:43:12.715Z,57.93
2022-11-13T17:45:36.817Z,63.07
2022-11-13T17:47:58.444Z,65.60
2022-11-13T17:50:18.940Z,77.60
2022-11-13T17:52:39.497Z,76.03
2022-11-13T17:55:00.064Z,67.07
2022-11-13T17:57:24.197Z,74.70
2022-11-13T17:59:47.269Z,70.47
2022-11-13T18:02:10.867Z,68.23
2022-11-13T18:04:31.251Z,75.97
2022-11-13T18:06:51.903Z,68.93
2022-11-13T18:09:12.560Z,69.83
2022-11-13T18:11:34.071Z,74.97
2022-11-13T18:13:54.645Z,70.43
2022-11-13T18:16:19.006Z,66.83
2022-11-13T18:18:39.581Z,64.10
2022-11-13T18:21:03.531Z,56.70
2022-11-13T18:23:30.864Z,59.30
2022-11-13T18:25:51.761Z,62.63
2022-11-13T18:28:12.362Z,62.63
2022-11-13T18:30:33.158Z,63.30
2022-11-13T18:32:53.666Z,65.80
2022-11-13T18:35:14.354Z,48.83
2022-11-13T18:37:35.153Z,59.03
2022-11-13T18:39:56.172Z,57.00
2022-11-13T18:42:16.762Z,57.37
2022-11-13T18:44:37.348Z,59.13
2022-11-13T18:46:57.935Z,58.57
2022-11-13T18:49:18.617Z,57.20
2022-11-13T18:51:39.458Z,57.50
2022-11-13T18:54:00.028Z,63.13
2022-11-13T18:56:25.642Z,62.50
2022-11-13T18:58:47.549Z,64.30
2022-11-13T19:01:22.657Z,61.37
2022-11-13T19:04:01.309Z,63.53
2022-11-13T19:06:25.131Z,58.83
2022-11-13T19:08:46.217Z,59.07
2022-11-13T19:11:12.774Z,55.70
2022-11-13T19:13:34.334Z,61.03
2022-11-13T19:15:55.710Z,62.23
2022-11-13T19:18:15.977Z,57.37
2022-11-13T19:20:39.049Z,54.77
2022-11-13T19:22:59.680Z,55.10
2022-11-13T19:25:20.795Z,55.93
2022-11-13T19:27:41.109Z,55.30
2022-11-13T19:30:01.583Z,54.20
2022-11-13T19:32:22.082Z,53.70
2022-11-13T19:34:46.408Z,52.17
2022-11-13T19:37:07.478Z,54.40
2022-11-13T19:39:28.368Z,52.80
2022-11-13T19:41:49.021Z,59.97
2022-11-13T19:44:09.920Z,57.00
2022-11-13T19:46:32.088Z,51.13
2022-11-13T19:48:52.746Z,60.13
2022-11-13T19:51:19.233Z,56.13
2022-11-13T19:53:40.249Z,54.10
2022-11-13T19:56:00.851Z,52.90
2022-11-13T19:58:21.483Z,57.27
2022-11-13T20:00:42.030Z,54.60
2022-11-13T20:03:07.332Z,60.83
2022-11-13T20:05:28.358Z,58.77
2022-11-13T20:07:52.666Z,53.27
2022-11-13T20:10:13.754Z,61.53
2022-11-13T20:12:34.081Z,58.97
2022-11-13T20:14:55.110Z,53.27
2022-11-13T20:17:16.774Z,54.60
2022-11-13T20:19:37.276Z,55.93
2022-11-13T20:21:57.741Z,59.33
2022-11-13T20:24:18.526Z,60.37
2022-11-13T20:26:39.372Z,50.70
2022-11-13T20:29:00.177Z,66.00
2022-11-13T20:31:23.533Z,59.80
2022-11-13T20:33:44.312Z,60.10
2022-11-13T20:36:05.302Z,58.97
2022-11-13T20:38:26.013Z,53.80
2022-11-13T20:40:46.493Z,53.83
2022-11-13T20:43:07.130Z,56.83
2022-11-13T20:45:27.864Z,54.00
2022-11-13T20:47:48.463Z,60.47
2022-11-13T20:50:10.022Z,58.17
2022-11-13T20:52:30.313Z,63.83
2022-11-13T20:54:50.898Z,58.27
2022-11-13T20:57:11.415Z,60.80
2022-11-13T20:59:32.035Z,56.17
2022-11-13T21:01:52.850Z,59.00
2022-11-13T21:04:13.446Z,56.30
2022-11-13T21:06:34.134Z,52.93
2022-11-13T21:08:56.426Z,56.33
2022-11-13T21:11:19.269Z,48.33
2022-11-13T21:13:39.754Z,56.67
2022-11-13T21:16:05.764Z,50.97
2022-11-13T21:18:26.701Z,52.40
2022-11-13T21:20:47.977Z,53.10
2022-11-13T21:23:08.460Z,49.10
2022-11-13T21:25:29.471Z,54.50
2022-11-13T21:27:49.915Z,53.80
2022-11-13T21:30:11.245Z,49.87
2022-11-13T21:32:32.434Z,54.40
2022-11-13T21:34:58.948Z,63.27
2022-11-13T21:37:19.491Z,58.27
2022-11-13T21:39:39.873Z,61.47
2022-11-13T21:42:00.469Z,58.13
2022-11-13T21:44:20.979Z,54.60
2022-11-13T21:46:45.684Z,68.60
2022-11-13T21:49:11.358Z,59.23
2022-11-13T21:51:33.967Z,57.60
2022-11-13T21:53:55.345Z,72.07
2022-11-13T21:56:16.267Z,68.40
2022-11-13T21:58:39.300Z,68.00
2022-11-13T22:01:00.444Z,64.60
2022-11-13T22:03:21.216Z,80.43
2022-11-13T22:05:41.771Z,62.40
2022-11-13T22:08:02.393Z,65.53
2022-11-13T22:10:23.141Z,76.00
2022-11-13T22:12:43.527Z,70.00
2022-11-13T22:15:04.763Z,78.97
2022-11-13T22:17:25.809Z,91.60
2022-11-13T22:19:46.284Z,82.23
2022-11-13T22:22:07.102Z,88.00
2022-11-13T22:24:27.785Z,84.33
2022-11-13T22:26:48.717Z,90.40
2022-11-13T22:29:09.461Z,81.63
2022-11-13T22:31:31.560Z,85.10
2022-11-13T22:33:55.216Z,88.10
2022-11-13T22:36:18.641Z,89.93
2022-11-13T22:38:39.809Z,84.63
2022-11-13T22:41:12.364Z,101.33
2022-11-13T22:43:38.158Z,97.30
2022-11-13T22:46:10.222Z,101.83
2022-11-13T22:48:31.055Z,87.10
2022-11-13T22:50:52.046Z,86.30
2022-11-13T22:53:14.709Z,88.33
2022-11-13T22:55:35.531Z,84.53
2022-11-13T22:57:58.327Z,91.03
2022-11-13T23:00:19.348Z,90.90
2022-11-13T23:02:45.962Z,86.50
2022-11-13T23:05:08.004Z,90.60
2022-11-13T23:07:30.534Z,89.20
2022-11-13T23:09:51.325Z,85.00
2022-11-13T23:12:12.005Z,79.00
2022-11-13T23:14:32.873Z,83.30
2022-11-13T23:16:53.856Z,79.83
2022-11-13T23:19:14.263Z,82.77
2022-11-13T23:21:35.238Z,76.53
2022-11-13T23:23:56.812Z,81.07
2022-11-13T23:26:18.641Z,87.80
2022-11-13T23:28:39.517Z,94.87
2022-11-13T23:31:00.144Z,96.13
2022-11-13T23:33:20.834Z,98.80
2022-11-13T23:35:42.240Z,109.93
2022-11-13T23:38:03.140Z,93.23
2022-11-13T23:40:24.049Z,99.50
2022-11-13T23:42:55.176Z,97.57
2022-11-13T23:45:17.013Z,93.20
2022-11-13T23:47:37.515Z,97.07
2022-11-13T23:49:58.414Z,97.37
2022-11-13T23:52:19.224Z,79.63
2022-11-13T23:54:40.082Z,102.33
2022-11-13T23:57:00.718Z,96.07
2022-11-13T23:59:21.222Z,114.90
